Time;durP1;ratioP1;P1;durP2;ratioP2;P2;SDS_P1;SDS_P2;PMS_P1;PMS_P2;Temp;Humidity;BMP_temperature;BMP_pressure;BME280_temperature;BME280_humidity;BME280_pressure;Samples;Min_cycle;Max_cycle;Signal;HPM_P1;HPM_P2
2023/10/27 00:01:58;;;;;;;0.30;0.30;;;;;;;25.47;36.31;97126.56;7396493;19;20010;-57
2023/10/27 00:04:25;;;;;;;0.82;0.60;;;;;;;25.41;36.01;97131.22;7397036;19;20023;-57
2023/10/27 00:06:51;;;;;;;0.25;0.25;;;;;;;25.42;36.35;97133.47;7396607;19;20017;-57
2023/10/27 00:09:17;;;;;;;0.80;0.80;;;;;;;25.49;35.96;97125.94;7394725;19;20476;-57
2023/10/27 00:11:43;;;;;;;1.23;0.80;;;;;;;25.32;36.13;97124.41;7396369;19;20014;-57
2023/10/27 00:14:09;;;;;;;0.85;0.85;;;;;;;25.75;35.96;97129.22;7394312;19;20014;-57
2023/10/27 00:16:35;;;;;;;0.82;0.77;;;;;;;23.87;37.81;97131.56;7396527;19;20554;-57
2023/10/27 00:19:02;;;;;;;0.98;0.98;;;;;;;24.85;37.02;97123.66;7394456;19;20014;-57
2023/10/27 00:21:28;;;;;;;0.52;0.32;;;;;;;25.64;36.63;97119.47;7396213;19;20027;-57
2023/10/27 00:23:54;;;;;;;1.92;1.17;;;;;;;26.57;35.54;97118.47;7396120;19;20035;-57
2023/10/27 00:26:20;;;;;;;0.60;0.60;;;;;;;26.54;35.67;97125.47;7400375;19;20010;-57
2023/10/27 00:28:50;;;;;;;1.80;0.75;;;;;;;26.36;35.88;97121.84;7397493;19;20492;-57
2023/10/27 00:31:16;;;;;;;6.72;1.20;;;;;;;26.60;35.20;97122.84;7395633;19;20011;-57
2023/10/27 00:33:42;;;;;;;2.47;0.65;;;;;;;25.55;36.42;97124.06;7394519;19;20029;-57
2023/10/27 00:36:08;;;;;;;0.70;0.70;;;;;;;25.40;36.38;97124.78;7399264;19;20011;-57
2023/10/27 00:38:34;;;;;;;0.40;0.40;;;;;;;24.49;37.87;97130.44;7393942;19;20014;-57
2023/10/27 00:41:00;;;;;;;0.60;0.47;;;;;;;24.10;38.73;97125.66;7393352;19;20033;-57
2023/10/27 00:43:27;;;;;;;0.50;0.30;;;;;;;25.13;37.00;97121.38;7393542;19;20014;-57
2023/10/27 00:45:54;;;;;;;0.85;0.43;;;;;;;24.89;37.29;97126.69;7396060;19;20032;-58
2023/10/27 00:48:21;;;;;;;0.30;0.30;;;;;;;25.23;37.07;97124.72;7394667;19;20021;-57
2023/10/27 00:50:49;;;;;;;0.57;0.57;;;;;;;24.72;37.54;97118.72;7394597;19;20467;-57
2023/10/27 00:53:18;;;;;;;0.25;0.25;;;;;;;25.22;37.00;97114.69;7396189;19;20014;-57
2023/10/27 00:55:45;;;;;;;1.27;0.65;;;;;;;25.69;36.73;97111.81;7396276;19;20010;-57
2023/10/27 00:58:13;;;;;;;0.20;0.20;;;;;;;24.97;37.63;97112.09;7394184;19;20011;-57
2023/10/27 01:00:39;;;;;;;7.22;0.90;;;;;;;24.32;37.74;97108.97;7392517;19;20021;-57
2023/10/27 01:03:05;;;;;;;0.60;0.60;;;;;;;25.61;37.24;97097.22;7398186;19;20024;-57
2023/10/27 01:05:32;;;;;;;3.03;1.10;;;;;;;25.39;36.98;97106.22;7397218;19;20014;-57
2023/10/27 01:07:59;;;;;;;0.25;0.25;;;;;;;24.94;37.82;97102.72;7393131;19;20015;-57
2023/10/27 01:10:26;;;;;;;1.85;0.73;;;;;;;23.97;38.53;97103.66;7394080;19;20029;-57
2023/10/27 01:12:52;;;;;;;4.38;0.80;;;;;;;24.17;38.24;97106.09;7393205;19;20017;-57
2023/10/27 01:15:19;;;;;;;0.80;0.77;;;;;;;25.22;37.26;97100.44;7394799;19;20471;-57
2023/10/27 01:17:45;;;;;;;0.30;0.30;;;;;;;28.51;34.25;97092.75;7392409;19;20045;-57
2023/10/27 01:20:12;;;;;;;2.47;0.68;;;;;;;25.01;37.49;97107.34;7391800;19;20007;-57
2023/10/27 01:22:48;;;;;;;1.00;0.90;;;;;;;25.00;37.55;97117.25;7393450;19;20014;-57
2023/10/27 01:25:16;;;;;;;0.30;0.30;;;;;;;24.53;38.41;97111.44;7394375;19;20015;-57
2023/10/27 01:27:42;;;;;;;0.45;0.45;;;;;;;24.29;38.47;97110.25;7393467;19;20010;-57
2023/10/27 01:30:10;;;;;;;0.20;0.10;;;;;;;24.42;38.72;97112.31;7397923;19;20341;-57
2023/10/27 01:32:37;;;;;;;11.52;1.17;;;;;;;24.30;38.94;97114.56;7392833;19;20074;-57
2023/10/27 01:35:04;;;;;;;0.25;0.25;;;;;;;23.62;40.17;97111.81;7393348;19;20017;-57
2023/10/27 01:37:30;;;;;;;1.05;0.50;;;;;;;24.41;38.72;97115.78;7391981;19;20073;-57
2023/10/27 01:39:56;;;;;;;1.00;0.50;;;;;;;24.34;39.13;97111.19;7392412;19;20344;-57
2023/10/27 01:42:23;;;;;;;1.00;0.35;;;;;;;24.85;38.60;97106.56;7393347;19;20014;-57
2023/10/27 01:44:50;;;;;;;0.68;0.45;;;;;;;24.96;38.26;97111.38;7393818;19;20013;-57
2023/10/27 01:47:16;;;;;;;1.38;1.38;;;;;;;23.61;40.10;97112.44;7392445;19;20320;-57
2023/10/27 01:49:42;;;;;;;0.10;0.10;;;;;;;24.67;39.28;97105.66;7392697;19;20025;-57
2023/10/27 01:52:08;;;;;;;1.95;1.20;;;;;;;24.98;39.04;97100.06;7391129;19;20014;-57
2023/10/27 01:54:35;;;;;;;0.20;0.20;;;;;;;25.27;38.81;97105.69;7394750;19;20070;-57
2023/10/27 01:57:01;;;;;;;1.02;0.43;;;;;;;25.15;38.82;97099.44;7392603;19;20039;-57
2023/10/27 01:59:29;;;;;;;3.63;0.68;;;;;;;25.65;38.53;97103.09;7393914;19;20026;-57
2023/10/27 02:01:55;;;;;;;0.40;0.40;;;;;;;25.84;38.78;97096.78;7391017;19;20011;-57
2023/10/27 02:04:22;;;;;;;0.30;0.30;;;;;;;25.87;38.57;97095.50;7391267;19;20025;-57
2023/10/27 02:06:48;;;;;;;0.15;0.15;;;;;;;25.42;39.42;97090.00;7391353;19;20391;-58
2023/10/27 02:09:14;;;;;;;0.25;0.25;;;;;;;26.23;38.76;97097.06;7389994;19;20021;-57
2023/10/27 02:11:41;;;;;;;0.88;0.88;;;;;;;27.01;38.26;97091.66;7391308;19;20014;-57
2023/10/27 02:14:07;;;;;;;0.70;0.70;;;;;;;27.15;38.10;97091.47;7390322;19;20011;-57
2023/10/27 02:16:33;;;;;;;1.02;0.47;;;;;;;27.28;38.06;97090.53;7388399;19;20126;-57
2023/10/27 02:18:59;;;;;;;0.28;0.28;;;;;;;27.63;37.86;97087.56;7390657;19;20095;-57
2023/10/27 02:21:25;;;;;;;1.00;0.82;;;;;;;28.65;36.94;97083.16;7396634;19;20011;-57
2023/10/27 02:23:52;;;;;;;2.83;1.35;;;;;;;28.27;37.47;97086.22;7398294;19;20570;-57
2023/10/27 02:26:19;;;;;;;0.35;0.30;;;;;;;28.66;37.04;97084.63;7403132;19;20007;-57
2023/10/27 02:28:45;;;;;;;2.20;1.15;;;;;;;28.83;36.86;97072.25;7400143;19;20011;-57
2023/10/27 02:31:11;;;;;;;0.80;0.75;;;;;;;29.30;36.83;97075.16;7397994;19;20066;-57
2023/10/27 02:33:39;;;;;;;1.08;0.73;;;;;;;29.23;36.33;97076.38;7397409;19;20010;-57
2023/10/27 02:36:05;;;;;;;1.10;0.90;;;;;;;28.57;37.28;97072.19;7401252;19;20394;-57
2023/10/27 02:38:31;;;;;;;1.77;1.17;;;;;;;28.71;36.80;97077.63;7397994;19;20014;-57
2023/10/27 02:41:05;;;;;;;6.15;1.35;;;;;;;26.97;38.95;97080.09;7399971;19;20019;-57
2023/10/27 02:43:33;;;;;;;1.40;0.93;;;;;;;26.18;40.41;97067.63;7398811;19;20035;-57
2023/10/27 02:46:04;;;;;;;2.85;0.65;;;;;;;25.92;40.48;97065.78;7400226;19;20007;-57
2023/10/27 02:48:33;;;;;;;2.10;1.08;;;;;;;25.41;41.70;97074.22;7396030;19;20026;-57
2023/10/27 02:50:59;;;;;;;3.85;1.55;;;;;;;27.00;39.81;97067.34;7397200;19;20019;-57
2023/10/27 02:53:25;;;;;;;0.95;0.70;;;;;;;26.84;40.05;97066.72;7398586;19;20007;-57
2023/10/27 02:55:51;;;;;;;1.30;1.20;;;;;;;25.81;40.88;97072.44;7401390;19;20018;-57
2023/10/27 02:58:17;;;;;;;4.90;1.80;;;;;;;26.32;40.33;97076.03;7397649;19;20014;-57
2023/10/27 03:00:44;;;;;;;4.05;1.75;;;;;;;28.21;38.42;97077.44;7396202;19;20010;-57
2023/10/27 03:03:10;;;;;;;1.33;0.80;;;;;;;28.37;38.11;97071.53;7398250;19;20337;-57
2023/10/27 03:05:36;;;;;;;0.77;0.77;;;;;;;28.04;38.20;97069.72;7399872;19;20358;-57
2023/10/27 03:08:03;;;;;;;3.10;1.08;;;;;;;27.87;38.83;97073.38;7396654;19;20021;-57
2023/10/27 03:10:29;;;;;;;0.80;0.52;;;;;;;27.55;38.73;97067.25;7396891;19;20018;-57
2023/10/27 03:12:55;;;;;;;1.80;1.08;;;;;;;26.99;39.32;97077.31;7397672;19;20015;-57
2023/10/27 03:15:21;;;;;;;0.73;0.55;;;;;;;26.76;39.86;97077.09;7398339;19;20107;-57
2023/10/27 03:17:48;;;;;;;1.13;0.40;;;;;;;26.49;40.52;97078.16;7396635;19;20098;-57
2023/10/27 03:20:15;;;;;;;1.10;1.10;;;;;;;26.37;40.71;97071.97;7396527;19;20021;-58
2023/10/27 03:22:41;;;;;;;4.50;1.38;;;;;;;26.58;40.53;97067.78;7397543;19;20040;-57
2023/10/27 03:25:07;;;;;;;2.22;1.42;;;;;;;27.80;39.70;97060.25;7397096;19;20010;-57
2023/10/27 03:27:33;;;;;;;1.38;0.85;;;;;;;27.39;39.50;97072.41;7396038;19;20018;-57
2023/10/27 03:29:59;;;;;;;0.60;0.60;;;;;;;28.66;38.45;97056.72;7397461;19;20018;-57
2023/10/27 03:32:27;;;;;;;0.50;0.40;;;;;;;29.13;37.61;97053.84;7394807;19;20096;-57
2023/10/27 03:34:54;;;;;;;2.67;0.77;;;;;;;28.66;37.81;97061.72;7398429;19;20011;-57
2023/10/27 03:37:21;;;;;;;2.20;0.90;;;;;;;29.04;37.81;97060.03;7396558;19;20562;-57
2023/10/27 03:39:47;;;;;;;2.60;2.03;;;;;;;28.44;38.30;97061.72;7395925;19;20363;-57
2023/10/27 03:42:13;;;;;;;0.47;0.47;;;;;;;28.91;37.61;97055.34;7395228;19;20010;-57
2023/10/27 03:44:40;;;;;;;0.43;0.43;;;;;;;28.63;38.40;97055.19;7396116;19;20074;-57
2023/10/27 03:47:07;;;;;;;1.10;0.47;;;;;;;28.89;37.76;97061.00;7395249;19;20010;-57
2023/10/27 03:49:33;;;;;;;3.83;1.02;;;;;;;29.28;37.77;97052.19;7395948;19;20047;-57
2023/10/27 03:51:59;;;;;;;8.98;1.50;;;;;;;29.56;37.56;97055.09;7396946;19;20015;-57
2023/10/27 03:54:25;;;;;;;0.73;0.52;;;;;;;28.54;38.53;97048.44;7398184;19;20028;-57
2023/10/27 03:56:51;;;;;;;8.70;1.95;;;;;;;29.48;37.91;97058.47;7396719;19;20006;-57
2023/10/27 03:59:19;;;;;;;1.88;1.02;;;;;;;28.23;38.98;97056.72;7397149;19;20037;-57
2023/10/27 04:01:45;;;;;;;1.05;0.75;;;;;;;28.34;38.82;97059.25;7396486;19;20029;-57
2023/10/27 04:04:11;;;;;;;1.10;1.00;;;;;;;28.23;38.81;97054.59;7396322;19;20079;-57
2023/10/27 04:06:38;;;;;;;0.95;0.93;;;;;;;28.33;39.11;97057.06;7396264;19;20018;-58
2023/10/27 04:09:04;;;;;;;2.50;1.60;;;;;;;27.90;39.71;97054.88;7395709;19;20518;-57
2023/10/27 04:11:30;;;;;;;1.73;1.45;;;;;;;27.47;39.85;97049.06;7395740;19;20011;-57
2023/10/27 04:13:56;;;;;;;3.38;0.52;;;;;;;27.89;39.64;97059.16;7395473;19;20015;-57
2023/10/27 04:16:22;;;;;;;0.77;0.77;;;;;;;29.21;38.19;97059.13;7399260;19;20554;-57
2023/10/27 04:18:49;;;;;;;1.58;1.27;;;;;;;30.20;37.16;97056.81;7393085;19;20019;-57
2023/10/27 04:21:15;;;;;;;2.17;1.23;;;;;;;31.37;35.64;97057.41;7395401;19;20015;-57
2023/10/27 04:23:41;;;;;;;0.47;0.47;;;;;;;31.29;35.57;97054.38;7394732;19;20021;-57
2023/10/27 04:26:07;;;;;;;1.10;0.55;;;;;;;31.62;35.20;97060.81;7397467;19;20014;-57
2023/10/27 04:28:33;;;;;;;2.58;1.10;;;;;;;32.11;34.54;97063.19;7396103;19;20050;-57
2023/10/27 04:30:59;;;;;;;7.10;0.90;;;;;;;30.41;35.96;97063.81;7395451;19;20463;-57
2023/10/27 04:33:26;;;;;;;1.65;0.73;;;;;;;30.90;35.28;97065.72;7394841;19;20070;-57
2023/10/27 04:35:52;;;;;;;11.38;1.65;;;;;;;30.23;36.28;97063.34;7398543;19;20046;-57
2023/10/27 04:38:18;;;;;;;2.67;1.90;;;;;;;29.84;37.13;97059.47;7393541;19;20043;-57
2023/10/27 04:40:45;;;;;;;0.68;0.68;;;;;;;30.96;36.02;97063.72;7393266;19;20011;-57
2023/10/27 04:43:11;;;;;;;1.15;0.57;;;;;;;30.81;35.46;97064.78;7392770;19;20464;-57
2023/10/27 04:45:37;;;;;;;0.45;0.45;;;;;;;30.02;36.60;97052.78;7397318;19;20019;-57
2023/10/27 04:48:04;;;;;;;2.05;0.52;;;;;;;30.76;36.13;97056.75;7394333;19;20443;-57
2023/10/27 04:50:32;;;;;;;0.68;0.65;;;;;;;31.93;35.06;97054.19;7394552;19;20014;-57
2023/10/27 04:52:59;;;;;;;1.50;0.50;;;;;;;31.27;35.42;97057.19;7394846;19;20074;-57
2023/10/27 04:55:26;;;;;;;1.00;0.98;;;;;;;32.01;34.57;97057.25;7395275;19;20010;-57
2023/10/27 04:57:52;;;;;;;0.95;0.68;;;;;;;33.14;33.33;97050.41;7394057;19;20646;-57
2023/10/27 05:00:18;;;;;;;1.27;0.93;;;;;;;32.24;34.47;97046.84;7392890;19;20094;-57
2023/10/27 05:02:44;;;;;;;0.85;0.85;;;;;;;31.81;34.47;97059.72;7393328;19;20010;-57
2023/10/27 05:05:11;;;;;;;4.88;2.17;;;;;;;30.85;35.12;97056.25;7393251;19;20079;-58
2023/10/27 05:07:37;;;;;;;1.35;0.95;;;;;;;31.35;34.78;97057.38;7393341;19;20027;-57
2023/10/27 05:10:07;;;;;;;0.50;0.50;;;;;;;30.57;35.75;97049.84;7393760;19;20018;-58
2023/10/27 05:12:36;;;;;;;1.75;1.13;;;;;;;30.61;35.76;97041.31;7394778;19;20039;-58
2023/10/27 05:15:05;;;;;;;0.90;0.88;;;;;;;30.71;35.73;97047.28;7392374;19;20014;-58
2023/10/27 05:17:35;;;;;;;1.58;0.98;;;;;;;30.84;35.39;97046.16;7396023;19;20082;-58
2023/10/27 05:20:08;;;;;;;4.07;1.83;;;;;;;30.68;35.95;97048.69;7392958;19;20015;-57
2023/10/27 05:22:34;;;;;;;1.25;1.02;;;;;;;30.88;35.61;97051.31;7391838;19;20357;-57
2023/10/27 05:25:06;;;;;;;0.55;0.55;;;;;;;30.93;35.83;97052.88;7394267;19;20015;-57
2023/10/27 05:27:33;;;;;;;2.13;1.13;;;;;;;31.50;34.99;97051.91;7393479;19;20125;-57
2023/10/27 05:30:00;;;;;;;8.20;1.00;;;;;;;33.44;33.31;97045.75;7397615;19;20007;-58
2023/10/27 05:32:27;;;;;;;3.72;1.17;;;;;;;33.60;32.79;97042.34;7393229;19;20463;-58
2023/10/27 05:34:53;;;;;;;0.75;0.75;;;;;;;32.86;33.15;97050.72;7392059;19;20013;-58
2023/10/27 05:37:21;;;;;;;3.03;1.13;;;;;;;31.25;34.58;97048.50;7389841;19;20006;-59
2023/10/27 05:39:47;;;;;;;1.70;0.82;;;;;;;31.12;34.92;97046.81;7390205;19;20340;-59
2023/10/27 05:42:14;;;;;;;1.52;0.82;;;;;;;31.29;34.80;97047.88;7391375;19;20031;-59
2023/10/27 05:44:41;;;;;;;3.20;1.17;;;;;;;31.43;34.86;97046.06;7390624;19;20046;-59
2023/10/27 05:47:07;;;;;;;8.95;0.90;;;;;;;31.82;34.14;97050.38;7392361;19;20019;-58
2023/10/27 05:49:33;;;;;;;0.68;0.55;;;;;;;31.83;34.25;97048.25;7392064;19;20525;-59
2023/10/27 05:52:02;;;;;;;1.05;0.43;;;;;;;31.83;34.20;97051.13;7392701;19;20011;-59
2023/10/27 05:54:30;;;;;;;2.85;0.82;;;;;;;31.76;34.36;97043.78;7393640;19;20461;-58
2023/10/27 05:56:56;;;;;;;1.52;1.15;;;;;;;31.86;33.99;97038.94;7392037;19;20341;-59
2023/10/27 05:59:22;;;;;;;0.45;0.38;;;;;;;31.39;34.63;97051.69;7393604;19;20078;-59
2023/10/27 06:01:48;;;;;;;0.28;0.28;;;;;;;31.47;34.10;97050.44;7391553;19;20011;-59
2023/10/27 06:04:15;;;;;;;5.30;1.05;;;;;;;31.97;34.24;97042.75;7391631;19;20011;-59
2023/10/27 06:06:41;;;;;;;1.05;0.80;;;;;;;32.14;33.32;97050.25;7391649;19;20036;-58
2023/10/27 06:09:07;;;;;;;0.40;0.40;;;;;;;32.28;33.82;97047.63;7393052;19;20021;-59
2023/10/27 06:11:33;;;;;;;3.42;0.88;;;;;;;32.24;33.12;97053.34;7392274;19;20011;-59
2023/10/27 06:14:00;;;;;;;2.13;1.13;;;;;;;32.29;33.21;97051.97;7391020;19;20041;-59
2023/10/27 06:16:26;;;;;;;1.67;0.82;;;;;;;32.53;32.98;97054.56;7394885;19;20025;-59
2023/10/27 06:18:52;;;;;;;3.20;1.30;;;;;;;33.10;32.76;97056.84;7390721;19;20015;-59
2023/10/27 06:21:18;;;;;;;2.15;0.70;;;;;;;33.12;31.87;97067.69;7392188;19;20030;-59
2023/10/27 06:23:44;;;;;;;0.30;0.20;;;;;;;33.75;31.00;97058.41;7392724;19;20006;-59
2023/10/27 06:26:11;;;;;;;0.77;0.63;;;;;;;34.13;31.52;97061.69;7396078;19;20468;-58
2023/10/27 06:28:37;;;;;;;0.25;0.20;;;;;;;34.06;31.08;97057.31;7392173;19;20022;-58
2023/10/27 06:31:04;;;;;;;3.25;0.80;;;;;;;34.28;30.94;97051.72;7391981;19;20036;-59
2023/10/27 06:33:32;;;;;;;0.50;0.50;;;;;;;34.41;30.78;97054.72;7391450;19;20017;-59
2023/10/27 06:35:59;;;;;;;1.42;0.75;;;;;;;34.44;30.37;97053.31;7391445;19;20017;-59
2023/10/27 06:38:26;;;;;;;0.15;0.15;;;;;;;34.50;30.51;97050.47;7394363;19;20343;-59
2023/10/27 06:40:52;;;;;;;0.45;0.45;;;;;;;34.28;30.80;97059.69;7391819;19;20018;-58
2023/10/27 06:43:19;;;;;;;0.63;0.57;;;;;;;34.24;30.71;97060.38;7391289;19;20499;-59
2023/10/27 06:45:45;;;;;;;3.13;1.13;;;;;;;34.33;30.77;97064.78;7390710;19;20026;-58
2023/10/27 06:48:11;;;;;;;0.20;0.20;;;;;;;34.56;30.17;97065.00;7393522;19;20023;-58
2023/10/27 06:50:37;;;;;;;3.92;0.65;;;;;;;34.69;30.18;97057.88;7390158;19;20090;-59
2023/10/27 06:53:03;;;;;;;0.50;0.32;;;;;;;33.67;30.94;97069.13;7391312;19;20010;-58
2023/10/27 06:55:29;;;;;;;0.50;0.50;;;;;;;33.46;31.24;97063.09;7390108;19;20456;-58
2023/10/27 06:57:56;;;;;;;1.75;0.50;;;;;;;33.63;30.90;97064.06;7390568;19;20021;-58
2023/10/27 07:00:22;;;;;;;0.90;0.55;;;;;;;33.44;31.27;97059.47;7394666;19;20018;-59
2023/10/27 07:02:48;;;;;;;0.10;0.10;;;;;;;33.39;31.52;97075.28;7395432;19;20036;-59
2023/10/27 07:05:16;;;;;;;1.38;1.27;;;;;;;33.59;30.87;97069.78;7397297;19;20070;-59
2023/10/27 07:07:46;;;;;;;1.25;1.00;;;;;;;33.58;31.33;97076.97;7396203;19;20015;-58
2023/10/27 07:10:12;;;;;;;3.58;0.47;;;;;;;33.64;31.01;97077.03;7398413;19;20014;-58
2023/10/27 07:12:38;;;;;;;0.70;0.70;;;;;;;33.36;31.25;97085.31;7400917;19;20010;-59
2023/10/27 07:15:04;;;;;;;0.40;0.40;;;;;;;33.58;31.50;97085.63;7394581;19;20011;-59
2023/10/27 07:17:31;;;;;;;0.85;0.85;;;;;;;34.00;30.77;97088.28;7397498;19;20466;-59
2023/10/27 07:19:57;;;;;;;0.65;0.63;;;;;;;34.78;30.12;97086.13;7397942;19;20010;-59
2023/10/27 07:22:23;;;;;;;1.77;0.43;;;;;;;34.74;30.14;97094.06;7397512;19;20025;-59
2023/10/27 07:24:49;;;;;;;0.32;0.32;;;;;;;34.73;30.14;97101.28;7400269;19;20024;-59
2023/10/27 07:27:15;;;;;;;0.63;0.63;;;;;;;34.97;29.85;97101.47;7397580;19;20014;-59
2023/10/27 07:29:42;;;;;;;0.65;0.60;;;;;;;35.42;29.46;97097.41;7400214;19;20021;-58
2023/10/27 07:32:08;;;;;;;1.20;0.98;;;;;;;35.40;29.74;97097.41;7397047;19;20011;-58
2023/10/27 07:34:34;;;;;;;0.38;0.32;;;;;;;34.27;30.14;97099.41;7397023;19;20328;-58
2023/10/27 07:37:00;;;;;;;0.40;0.35;;;;;;;34.76;29.93;97102.75;7397803;19;20019;-58
2023/10/27 07:39:26;;;;;;;1.38;0.77;;;;;;;34.68;29.79;97105.56;7393491;19;20019;-58
2023/10/27 07:41:52;;;;;;;3.75;0.75;;;;;;;34.63;29.88;97109.88;7397180;19;20021;-58
2023/10/27 07:44:19;;;;;;;1.20;1.20;;;;;;;34.65;29.84;97107.00;7397220;19;20011;-58
2023/10/27 07:46:45;;;;;;;0.77;0.77;;;;;;;34.26;30.15;97108.81;7397142;19;20455;-58
2023/10/27 07:49:12;;;;;;;0.30;0.30;;;;;;;33.97;30.24;97113.53;7395103;19;20348;-58
2023/10/27 07:51:38;;;;;;;0.15;0.15;;;;;;;34.19;30.30;97110.16;7396269;19;20034;-58
2023/10/27 07:54:06;;;;;;;0.10;0.10;;;;;;;33.26;30.88;97116.94;7399543;19;20011;-58
2023/10/27 07:56:32;;;;;;;1.13;0.57;;;;;;;33.58;31.04;97120.28;7396251;19;20014;-59
2023/10/27 07:58:59;;;;;;;0.28;0.28;;;;;;;34.08;30.20;97112.22;7397611;19;20010;-58
2023/10/27 08:01:26;;;;;;;0.65;0.63;;;;;;;34.44;30.59;97116.91;7396152;19;20011;-58
2023/10/27 08:03:52;;;;;;;3.08;0.70;;;;;;;34.07;30.68;97116.53;7394184;19;20066;-58
2023/10/27 08:06:18;;;;;;;1.33;1.00;;;;;;;34.66;30.27;97120.75;7399973;19;20011;-58
2023/10/27 08:08:46;;;;;;;0.68;0.68;;;;;;;35.51;29.32;97133.66;7394875;19;20023;-58
2023/10/27 08:11:18;;;;;;;0.70;0.35;;;;;;;36.15;28.67;97129.56;7396105;19;20341;-58
2023/10/27 08:13:45;;;;;;;0.47;0.47;;;;;;;36.38;28.44;97128.19;7395421;19;20035;-59
2023/10/27 08:16:13;;;;;;;0.57;0.50;;;;;;;36.85;28.07;97123.16;7398280;19;20094;-59
2023/10/27 08:18:39;;;;;;;0.65;0.60;;;;;;;36.92;28.04;97131.16;7393838;19;20345;-59
2023/10/27 08:21:06;;;;;;;0.65;0.65;;;;;;;36.91;27.71;97132.59;7395619;19;20011;-58
2023/10/27 08:23:32;;;;;;;0.50;0.50;;;;;;;36.35;28.32;97129.63;7395316;19;20010;-58
2023/10/27 08:25:58;;;;;;;0.38;0.25;;;;;;;36.07;28.59;97129.56;7398887;19;20481;-58
2023/10/27 08:28:24;;;;;;;0.20;0.20;;;;;;;35.19;29.35;97121.88;7397193;19;20526;-59
2023/10/27 08:30:50;;;;;;;1.05;0.75;;;;;;;33.77;30.29;97129.88;7395402;19;20010;-58
2023/10/27 08:33:16;;;;;;;1.38;0.82;;;;;;;32.77;31.30;97124.84;7395004;19;20463;-58
2023/10/27 08:35:43;;;;;;;0.20;0.20;;;;;;;33.44;30.69;97125.84;7398292;19;20015;-58
2023/10/27 08:38:09;;;;;;;0.28;0.20;;;;;;;33.52;30.66;97126.72;7394683;19;20018;-58
2023/10/27 08:40:36;;;;;;;0.38;0.38;;;;;;;33.50;30.94;97126.69;7394639;19;20017;-58
2023/10/27 08:43:05;;;;;;;0.68;0.30;;;;;;;33.47;30.89;97125.16;7397808;19;20039;-59
2023/10/27 08:45:32;;;;;;;1.38;0.80;;;;;;;33.37;30.97;97130.06;7396740;19;20043;-59
2023/10/27 08:48:00;;;;;;;0.40;0.40;;;;;;;33.05;31.37;97129.63;7394092;19;20084;-59
2023/10/27 08:50:29;;;;;;;0.10;0.10;;;;;;;33.76;30.78;97123.41;7392675;19;20013;-59
2023/10/27 08:52:55;;;;;;;1.00;0.50;;;;;;;32.71;31.79;97126.88;7394695;19;20014;-58
2023/10/27 08:55:22;;;;;;;0.10;0.10;;;;;;;33.58;31.10;97123.91;7397298;19;20014;-58
2023/10/27 08:57:48;;;;;;;0.10;0.10;;;;;;;32.15;31.93;97120.84;7393839;19;20493;-59
2023/10/27 09:00:16;;;;;;;1.65;0.68;;;;;;;32.18;32.40;97131.00;7398866;19;20473;-59
2023/10/27 09:02:42;;;;;;;1.83;0.63;;;;;;;32.38;32.41;97136.41;7394476;19;20074;-59
2023/10/27 09:05:09;;;;;;;0.52;0.52;;;;;;;32.33;32.60;97126.97;7393081;19;20014;-59
2023/10/27 09:07:36;;;;;;;0.10;0.00;;;;;;;32.27;32.59;97126.13;7394503;19;20013;-59
2023/10/27 09:10:04;;;;;;;0.88;0.85;;;;;;;32.09;32.78;97126.50;7394671;19;20022;-59
2023/10/27 09:12:31;;;;;;;0.10;0.10;;;;;;;32.42;32.43;97127.81;7394589;19;20018;-59
2023/10/27 09:15:04;;;;;;;0.77;0.77;;;;;;;32.38;32.40;97119.81;7394992;19;20038;-59
2023/10/27 09:17:50;;;;;;;1.33;0.95;;;;;;;32.51;32.53;97120.81;7393332;19;20093;-57
2023/10/27 09:20:16;;;;;;;1.80;0.43;;;;;;;32.12;32.89;97128.00;7393490;19;20023;-60
2023/10/27 09:23:04;;;;;;;4.38;0.75;;;;;;;32.43;32.88;97127.13;7391855;19;20014;-60
2023/10/27 09:25:32;;;;;;;2.95;0.82;;;;;;;32.34;32.91;97125.53;7394891;19;20014;-60
2023/10/27 09:28:00;;;;;;;0.75;0.40;;;;;;;32.67;32.86;97121.78;7392708;19;20010;-60
2023/10/27 09:30:32;;;;;;;0.10;0.10;;;;;;;32.51;33.34;97115.75;7392720;19;20010;-59
2023/10/27 09:33:23;;;;;;;0.32;0.20;;;;;;;32.25;33.47;97123.91;7392597;19;20022;-59
2023/10/27 09:35:53;;;;;;;0.63;0.38;;;;;;;32.90;33.06;97126.47;7395084;19;20014;-60
2023/10/27 09:38:22;;;;;;;0.45;0.40;;;;;;;32.94;33.01;97119.31;7392460;19;20031;-59
2023/10/27 09:40:49;;;;;;;1.00;0.57;;;;;;;33.37;31.96;97127.94;7393038;19;20007;-58
2023/10/27 09:43:17;;;;;;;1.75;1.17;;;;;;;33.30;32.36;97131.41;7393254;19;20014;-59
2023/10/27 09:45:52;;;;;;;0.30;0.28;;;;;;;32.61;32.74;97135.38;7394983;19;20044;-59
2023/10/27 09:48:38;;;;;;;0.40;0.40;;;;;;;32.53;33.05;97123.72;7393136;19;20014;-59
2023/10/27 09:51:10;;;;;;;0.40;0.30;;;;;;;32.42;33.29;97130.72;7392373;19;20010;-59
2023/10/27 09:53:38;;;;;;;1.27;0.90;;;;;;;32.91;32.83;97130.09;7394680;19;20468;-59
2023/10/27 09:56:06;;;;;;;1.92;0.60;;;;;;;33.51;32.67;97128.13;7396469;19;20011;-59
2023/10/27 09:58:34;;;;;;;0.20;0.20;;;;;;;37.47;29.23;97114.38;7391628;19;20018;-59
2023/10/27 10:01:02;;;;;;;0.32;0.32;;;;;;;38.01;28.74;97116.34;7391708;19;20015;-57
2023/10/27 10:03:28;;;;;;;2.83;1.42;;;;;;;37.91;28.28;97108.41;7392483;19;20021;-59
2023/10/27 10:06:12;;;;;;;1.55;1.00;;;;;;;39.15;27.52;97100.28;7395753;19;20612;-59
2023/10/27 10:08:40;;;;;;;0.57;0.47;;;;;;;40.06;26.86;97102.13;7392223;19;20011;-57
2023/10/27 10:11:17;;;;;;;1.08;0.65;;;;;;;39.44;26.86;97109.41;7393200;19;20023;-59
2023/10/27 10:13:44;;;;;;;0.75;0.75;;;;;;;39.28;26.63;97112.53;7391267;19;20500;-59
2023/10/27 10:16:12;;;;;;;3.42;1.08;;;;;;;39.64;26.48;97115.03;7394935;19;20007;-60
2023/10/27 10:18:48;;;;;;;1.88;0.38;;;;;;;39.95;26.20;97110.28;7389179;19;20070;-59
2023/10/27 10:21:39;;;;;;;0.10;0.10;;;;;;;40.33;25.98;97114.16;7391553;19;20495;-59
2023/10/27 10:24:08;;;;;;;0.50;0.50;;;;;;;40.61;25.62;97111.53;7391498;19;20015;-58
2023/10/27 10:26:59;;;;;;;1.17;0.73;;;;;;;41.12;25.01;97108.50;7391359;19;20390;-58
2023/10/27 10:29:28;;;;;;;;;;;;;;;41.18;24.83;97108.38;7394673;19;20337;-58
2023/10/27 10:32:33;;;;;;;0.38;0.38;;;;;;;40.96;25.35;97108.78;7391029;19;19955;-57
2023/10/27 10:35:21;;;;;;;0.10;0.10;;;;;;;41.20;25.05;97108.34;7390525;19;20010;-57
2023/10/27 10:37:48;;;;;;;0.13;0.10;;;;;;;40.61;25.19;97113.75;7390719;19;20019;-57
2023/10/27 10:40:26;;;;;;;0.38;0.30;;;;;;;40.30;25.33;97106.91;7392873;19;20368;-57
2023/10/27 10:43:24;;;;;;;1.08;0.68;;;;;;;40.31;25.33;97114.16;7397664;19;20011;-58
2023/10/27 10:45:58;;;;;;;1.05;0.30;;;;;;;40.00;25.54;97114.59;7401062;19;20006;-58
2023/10/27 10:48:27;;;;;;;0.63;0.40;;;;;;;39.93;25.66;97112.50;7398321;19;20015;-58
2023/10/27 10:50:56;;;;;;;0.38;0.30;;;;;;;40.38;25.40;97104.59;7398584;19;20021;-58
2023/10/27 10:53:24;;;;;;;1.90;0.50;;;;;;;40.70;25.36;97097.53;7399246;19;20053;-58
2023/10/27 10:55:56;;;;;;;0.75;0.45;;;;;;;38.09;27.23;97104.69;7401150;19;20032;-58
2023/10/27 10:58:23;;;;;;;1.00;0.63;;;;;;;36.75;28.33;97103.59;7397375;19;20010;-58
2023/10/27 11:00:50;;;;;;;2.35;1.27;;;;;;;36.42;28.61;97102.09;7398603;19;20077;-58
2023/10/27 11:03:19;;;;;;;4.95;0.60;;;;;;;35.37;29.54;97101.00;7398474;19;20010;-58
2023/10/27 11:05:45;;;;;;;1.75;0.45;;;;;;;34.86;30.00;97100.66;7399846;19;20021;-58
2023/10/27 11:08:11;;;;;;;0.32;0.32;;;;;;;34.39;30.51;97109.63;7398766;19;20067;-58
2023/10/27 11:10:37;;;;;;;0.40;0.40;;;;;;;34.32;30.84;97106.69;7397566;19;20010;-58
2023/10/27 11:13:06;;;;;;;0.82;0.52;;;;;;;33.59;31.58;97104.44;7399105;19;20024;-58
2023/10/27 11:15:49;;;;;;;1.27;0.60;;;;;;;33.64;31.73;97100.13;7400043;19;20011;-59
2023/10/27 11:18:16;;;;;;;0.68;0.43;;;;;;;33.88;31.59;97106.19;7397995;19;20050;-58
2023/10/27 11:20:43;;;;;;;1.10;0.57;;;;;;;34.25;31.14;97099.41;7397696;19;20018;-59
2023/10/27 11:23:12;;;;;;;0.47;0.47;;;;;;;33.29;31.95;97106.88;7397881;19;20022;-58
2023/10/27 11:25:39;;;;;;;0.20;0.20;;;;;;;33.87;32.18;97104.03;7398781;19;20010;-58
2023/10/27 11:28:29;;;;;;;0.10;0.10;;;;;;;34.06;31.55;97103.53;7396206;19;20070;-58
2023/10/27 11:31:09;;;;;;;0.40;0.40;;;;;;;34.44;31.15;97108.25;7396409;19;20039;-58
2023/10/27 11:33:55;;;;;;;0.83;0.50;;;;;;;35.14;30.61;97103.03;7395960;19;20010;-59
2023/10/27 11:36:21;;;;;;;2.85;0.47;;;;;;;35.79;30.04;97101.94;7401185;19;20010;-59
2023/10/27 11:38:48;;;;;;;0.43;0.10;;;;;;;34.79;30.80;97098.44;7395747;19;20018;-59